AirNav   ProFlight Series 2 Aviation Headset
 
 730 users online  

0GA3 Ayresouth Airport
Temple, Georgia, USA

GOING TO TEMPLE?


FAA INFORMATION EFFECTIVE 18 JUNE 2020

Location

FAA Identifier: 0GA3
Lat/Long: 33-46-12.3810N 085-03-38.8050W
33-46.206350N 085-03.646750W
33.7701058,-85.0607792
(estimated)
Elevation: 1287 ft. / 392 m (estimated)
Variation: 01W (1985)
From city: 3 miles NW of TEMPLE, GA
Time zone: UTC -4 (UTC -5 during Standard Time)
Zip code: 30179

Airport Operations

Airport use: Private use. Permission required prior to landing
Activation date: 11/1989
Control tower: no
ARTCC: ATLANTA CENTER
FSS: MACON FLIGHT SERVICE STATION
Attendance: UNATNDD
Wind indicator: yes
Segmented circle: no

Airport Communications

WX AWOS-3 at CTJ (9 nm SW): 118.175 (770-214-9667)
WX AWOS-3 at PUJ (10 nm NE): 126.225 (770-445-3870)

Nearby radio navigation aids

VOR radial/distance  VOR name  Freq  Var
RMGr172/23.7ROME VORTAC115.4001E
ATLr290/32.4ATLANTA VORTAC116.9005W
PDKr266/38.5PEACHTREE VOR/DME116.6005W

 
NDB name  Hdg/Dist  Freq  Var  ID
CARROLLTON020/12.827804WGPQ --. .--. --.-
CARTERSVILLE207/27.930804WEVZ . ...- --..
COWETA COUNTY334/35.423403WEQQ . --.- --.-

Airport Services

Runway Information

Runway 18/36

Dimensions: 2000 x 100 ft. / 610 x 30 m
Surface: turf
RUNWAY 18  RUNWAY 36
Traffic pattern: leftleft

Airport Ownership and Management from official FAA records

Ownership: Privately-owned
Owner: STEVEN D. AYRES
3600 BANKHEAD HWY
LITHIA SPRINGS, GA 30122
Phone 770-948-1238
Manager: STEVEN D. AYRES
3600 BANKHEAD HWY
LITHIA SPRINS, GA 30122
Phone 404-514-4077

Airport Operational Statistics

Aircraft based on the field: 11
Single engine airplanes: 6
Ultralights: 5
    

Additional Remarks

FOR CD CTC ATLANTA APCH AT 678-364-6131.

Instrument Procedures

There are no published instrument procedures at 0GA3.

Some nearby airports with instrument procedures:

KCTJ - West Georgia Regional Airport-O V Gray Field (9 nm SW)
KPUJ - Paulding Northwest Atlanta Airport (10 nm NE)
4A4 - Polk County Airport - Cornelius Moore Field (16 nm N)
KVPC - Cartersville Airport (24 nm NE)
KFTY - Fulton County Airport-Brown Field (27 nm E)
 
Loc | Ops | Rwys | IFR | FBO | Links
Com | Nav | Svcs | Stats | Notes
Area around 0GA3 (Ayresouth Airport)
 
Road maps at: MapQuest Bing Google
 
Aerial photo
No photo
 
Sectional chart

 
Airport distance calculator
Flying to Ayresouth Airport? Find the distance to fly.

From to 0GA3

Sunrise and sunset
Times for 05-Jul-2020
 Local
(UTC-4)
 Zulu
(UTC)
Morning civil twilight06:0810:08
Sunrise06:3710:37
Sunset20:5300:53
Evening civil twilight21:2201:22

Current date and time
Zulu (UTC)  05-Jul-2020 13:41:21
Local (UTC-4)  05-Jul-2020 09:41:21
 
METAR
KCTJ 
9nm SW 
051315Z AUTO 00000KT 4SM HZ CLR 25/22 A3003 RMK AO2 T02490220
KPUJ 
10nm NE 
051315Z AUTO 00000KT 3SM HZ CLR 25/22 A3000 RMK AO2
TAF
KFTY 
27nm E 
051137Z 0512/0612 00000KT 1SM FU BR SCT060 SCT120 FM051500 12004KT P6SM SCT035 SCT100 FM051800 10006KT P6SM VCSH SCT045 BKN100 PROB30 0521/0524 VRB15G25KT 3SM TSRA BKN030CB FM060200 12003KT P6SM SCT060 BKN120 FM061000 10003KT P6SM VCSH SCT025 BKN100
KRYY 
27nm NE 
051137Z 0512/0612 00000KT 1SM FU BR SCT060 SCT120 FM051500 14005KT P6SM SCT030 SCT100 FM051800 12007KT P6SM VCSH SCT040 BKN100 PROB30 0521/0524 VRB15G25KT 3SM TSRA BKN030CB FM060200 12003KT P6SM SCT060 BKN120 FM061000 10003KT P6SM VCSH SCT025 BKN100
KMGE 
29nm E 
051100Z 0511/0611 14006KT 6000 BR SCT075 QNH2990INS BECMG 0513/0514 14006KT 9999 NSW SCT065 QNH2990INS BECMG 0515/0516 13009KT 9999 VCTS SCT050CB BKN080 QNH2988INS BECMG 0521/0522 12006KT 9999 NSW BKN100 QNH2993INS BECMG 0608/0609 11006KT 9999 SCT025 QNH2997INS TX33/0521Z TN22/0511Z
KATL 
32nm E 
051137Z 0512/0618 09004KT 4SM FU BR SCT060 SCT120 FM051500 13006KT P6SM SCT035 SCT100 FM051800 11008KT P6SM VCSH SCT045 BKN100 PROB30 0521/0524 VRB15G25KT 3SM TSRA BKN030CB FM060300 12004KT P6SM SCT060 BKN120 FM061000 09005KT P6SM VCSH SCT025 BKN100 FM061600 10008KT P6SM -SHRA BKN025 BKN100
NOTAMs
Click for the latest NOTAMs
NOTAMs are issued by the DoD/FAA and will open in a separate window not controlled by AirNav.

 

 
 

Would you like to see your business listed on this page?

 If your business provides an interesting product or service to pilots, flight crews, aircraft, or users of the Ayresouth Airport, you should consider listing it here.  To start the listing process, click on the button below
 
Add a business
 

Other Pages about Ayresouth Airport

Update a link
 
Copyright © AirNav, LLC. All rights reserved. Privacy Policy  Contact